createdAt,value
2023-02-12T00:00:35.752Z,19.70
2023-02-12T00:03:21.113Z,23.20
2023-02-12T00:06:07.699Z,26.05
2023-02-12T00:08:55.020Z,24.40
2023-02-12T00:11:40.498Z,26.40
2023-02-12T00:14:25.881Z,23.50
2023-02-12T00:17:11.418Z,21.42
2023-02-12T00:19:56.940Z,22.85
2023-02-12T00:22:42.568Z,23.35
2023-02-12T00:25:30.749Z,23.10
2023-02-12T00:28:16.346Z,20.02
2023-02-12T00:31:09.007Z,22.33
2023-02-12T00:34:03.684Z,21.10
2023-02-12T00:36:49.563Z,24.23
2023-02-12T00:39:38.131Z,24.92
2023-02-12T00:42:23.420Z,24.77
2023-02-12T00:45:09.584Z,24.55
2023-02-12T00:47:55.235Z,22.63
2023-02-12T00:50:43.709Z,27.77
2023-02-12T00:53:29.336Z,26.20
2023-02-12T00:56:17.347Z,24.38
2023-02-12T00:59:02.737Z,23.65
2023-02-12T01:01:48.157Z,26.52
2023-02-12T01:04:34.091Z,25.42
2023-02-12T01:07:19.584Z,25.05
2023-02-12T01:10:07.361Z,22.05
2023-02-12T01:12:53.048Z,22.05
2023-02-12T01:15:38.804Z,27.80
2023-02-12T01:18:24.350Z,27.10
2023-02-12T01:21:12.656Z,23.65
2023-02-12T01:24:02.219Z,29.75
2023-02-12T01:26:48.784Z,25.20
2023-02-12T01:29:34.546Z,23.77
2023-02-12T01:32:19.843Z,24.02
2023-02-12T01:35:06.032Z,26.23
2023-02-12T01:37:51.399Z,25.08
2023-02-12T01:40:37.397Z,28.65
2023-02-12T01:43:23.102Z,22.33
2023-02-12T01:46:11.868Z,22.48
2023-02-12T01:48:57.815Z,27.20
2023-02-12T01:51:45.008Z,26.98
2023-02-12T01:54:33.548Z,31.88
2023-02-12T01:57:21.216Z,30.80
2023-02-12T02:00:13.231Z,29.20
2023-02-12T02:06:11.763Z,29.83
2023-02-12T02:09:00.104Z,31.40
2023-02-12T02:12:04.130Z,26.55
2023-02-12T02:14:52.669Z,22.60
2023-02-12T02:17:51.667Z,22.90
2023-02-12T02:21:07.020Z,23.95
2023-02-12T02:24:26.567Z,32.63
2023-02-12T02:27:46.996Z,24.42
2023-02-12T02:30:54.433Z,25.25
2023-02-12T02:34:15.210Z,25.00
2023-02-12T02:37:09.585Z,25.50
2023-02-12T02:40:16.839Z,20.88
2023-02-12T02:43:11.064Z,25.80
2023-02-12T02:46:07.145Z,25.88
2023-02-12T02:49:03.835Z,20.98
2023-02-12T02:51:59.795Z,21.65
2023-02-12T02:54:49.712Z,22.30
2023-02-12T02:57:53.038Z,22.42
2023-02-12T03:00:47.511Z,18.55
2023-02-12T03:03:38.417Z,18.25
2023-02-12T03:06:52.545Z,22.30
2023-02-12T03:09:52.432Z,18.67
2023-02-12T03:12:52.746Z,20.70
2023-02-12T03:15:42.128Z,19.92
2023-02-12T03:18:38.760Z,19.40
2023-02-12T03:21:33.049Z,18.08
2023-02-12T03:24:30.707Z,18.75
2023-02-12T03:27:16.070Z,19.30
2023-02-12T03:30:03.599Z,20.92
2023-02-12T03:33:30.324Z,16.13
2023-02-12T03:36:46.780Z,19.65
2023-02-12T03:39:40.987Z,19.95
2023-02-12T03:42:39.642Z,19.75
2023-02-12T03:46:06.936Z,15.95
2023-02-12T03:49:15.287Z,17.98
2023-02-12T03:52:04.359Z,14.43
2023-02-12T03:54:49.901Z,16.80
2023-02-12T03:57:42.496Z,17.15
2023-02-12T04:00:28.126Z,19.50
2023-02-12T04:03:13.952Z,21.83
2023-02-12T04:05:59.661Z,22.02
2023-02-12T04:08:44.949Z,22.45
2023-02-12T04:11:49.258Z,18.17
2023-02-12T04:15:01.762Z,19.88
2023-02-12T04:18:04.755Z,20.05
2023-02-12T04:20:55.008Z,21.38
2023-02-12T04:24:18.073Z,21.30
2023-02-12T04:27:31.712Z,22.48
2023-02-12T04:30:33.793Z,22.42
2023-02-12T04:33:22.092Z,25.88
2023-02-12T04:36:13.719Z,19.17
2023-02-12T04:39:17.920Z,21.70
2023-02-12T04:42:06.620Z,26.98
2023-02-12T04:44:53.269Z,21.13
2023-02-12T04:47:38.615Z,17.95
2023-02-12T04:50:24.021Z,22.20
2023-02-12T04:53:10.454Z,22.23
2023-02-12T04:55:56.602Z,22.38
2023-02-12T04:58:44.567Z,25.45
2023-02-12T05:01:31.455Z,21.88
2023-02-12T05:04:17.631Z,25.25
2023-02-12T05:07:03.004Z,25.38
2023-02-12T05:09:48.781Z,29.20
2023-02-12T05:12:33.951Z,21.40
2023-02-12T05:15:19.967Z,23.42
2023-02-12T05:18:05.604Z,25.23
2023-02-12T05:21:01.996Z,21.27
2023-02-12T05:23:51.003Z,24.00
2023-02-12T05:26:37.482Z,20.88
2023-02-12T05:29:23.041Z,22.20
2023-02-12T05:32:08.788Z,20.65
2023-02-12T05:34:54.299Z,20.52
2023-02-12T05:37:44.902Z,26.95
2023-02-12T05:40:30.410Z,21.35
2023-02-12T05:43:15.652Z,19.10
2023-02-12T05:46:06.028Z,22.00
2023-02-12T05:48:51.731Z,22.58
2023-02-12T05:51:38.200Z,25.08
2023-02-12T05:54:23.456Z,19.52
2023-02-12T05:57:11.921Z,28.10
2023-02-12T05:59:57.633Z,22.95
2023-02-12T06:02:43.004Z,21.50
2023-02-12T06:05:28.651Z,22.77
2023-02-12T06:08:16.914Z,21.67
2023-02-12T06:11:05.105Z,22.63
2023-02-12T06:13:51.184Z,23.50
2023-02-12T06:16:36.714Z,20.75
2023-02-12T06:19:22.370Z,21.58
2023-02-12T06:22:07.666Z,26.98
2023-02-12T06:24:56.455Z,25.00
2023-02-12T06:27:41.825Z,21.23
2023-02-12T06:30:27.373Z,24.60
2023-02-12T06:33:13.035Z,19.13
2023-02-12T06:36:11.084Z,25.88
2023-02-12T06:38:56.721Z,22.40
2023-02-12T06:41:42.615Z,22.00
2023-02-12T06:44:31.021Z,21.52
2023-02-12T06:47:16.605Z,21.20
2023-02-12T06:50:01.987Z,21.48
2023-02-12T06:52:47.758Z,22.17
2023-02-12T06:55:34.853Z,21.85
2023-02-12T06:58:20.325Z,22.95
2023-02-12T07:01:18.085Z,21.13
2023-02-12T07:04:03.998Z,20.27
2023-02-12T07:06:49.556Z,21.20
2023-02-12T07:09:35.444Z,20.17
2023-02-12T07:12:23.653Z,21.58
2023-02-12T07:15:09.434Z,25.10
2023-02-12T07:17:56.102Z,21.15
2023-02-12T07:20:41.573Z,24.02
2023-02-12T07:23:28.396Z,21.35
2023-02-12T07:26:14.491Z,26.95
2023-02-12T07:29:00.171Z,22.27
2023-02-12T07:31:45.749Z,21.55
2023-02-12T07:34:31.481Z,18.95
2023-02-12T07:37:22.433Z,19.67
2023-02-12T07:40:11.330Z,19.08
2023-02-12T07:42:56.909Z,23.25
2023-02-12T07:45:42.170Z,23.77
2023-02-12T07:48:27.580Z,23.38
2023-02-12T07:51:15.805Z,23.75
2023-02-12T07:54:05.263Z,24.98
2023-02-12T07:56:51.810Z,22.65
2023-02-12T07:59:36.943Z,22.05
2023-02-12T08:02:25.742Z,24.40
2023-02-12T08:05:11.423Z,21.65
2023-02-12T08:07:57.597Z,25.27
2023-02-12T08:10:43.187Z,27.42
2023-02-12T08:13:28.693Z,23.35
2023-02-12T08:16:16.549Z,19.85
2023-02-12T08:19:15.470Z,30.48
2023-02-12T08:22:03.413Z,22.98
2023-02-12T08:24:52.045Z,21.83
2023-02-12T08:27:37.343Z,22.92
2023-02-12T08:30:25.466Z,24.50
2023-02-12T08:33:10.928Z,25.15
2023-02-12T08:36:09.630Z,26.20
2023-02-12T08:38:59.952Z,22.10
2023-02-12T08:41:46.900Z,22.55
2023-02-12T08:44:35.406Z,31.77
2023-02-12T08:47:20.425Z,25.77
2023-02-12T08:50:08.816Z,26.35
2023-02-12T08:52:54.375Z,30.52
2023-02-12T08:55:40.038Z,21.98
2023-02-12T08:58:25.407Z,28.00
2023-02-12T09:01:33.349Z,30.67
2023-02-12T09:04:23.031Z,25.80
2023-02-12T09:07:10.713Z,27.35
2023-02-12T09:09:56.492Z,23.20
2023-02-12T09:12:41.930Z,22.77
2023-02-12T09:15:27.150Z,19.77
2023-02-12T09:18:14.274Z,23.80
2023-02-12T09:21:08.361Z,22.13
2023-02-12T09:23:53.860Z,20.80
2023-02-12T09:26:39.960Z,18.73
2023-02-12T09:29:25.510Z,25.60
2023-02-12T09:32:11.364Z,19.92
2023-02-12T09:34:57.016Z,22.23
2023-02-12T09:37:49.721Z,23.58
2023-02-12T09:41:12.357Z,23.58
2023-02-12T09:44:42.358Z,19.83
2023-02-12T09:47:42.339Z,17.45
2023-02-12T09:50:36.326Z,18.42
2023-02-12T09:53:25.258Z,17.92
2023-02-12T09:56:15.814Z,20.30
2023-02-12T09:59:04.537Z,14.00
2023-02-12T10:01:49.773Z,16.75
2023-02-12T10:04:35.756Z,19.23
2023-02-12T10:07:37.177Z,15.75
2023-02-12T10:10:25.552Z,16.55
2023-02-12T10:13:42.951Z,18.95
2023-02-12T10:16:46.698Z,16.63
2023-02-12T10:19:53.977Z,13.77
2023-02-12T10:22:56.397Z,16.27
2023-02-12T10:25:55.042Z,17.40
2023-02-12T10:28:44.944Z,14.48
2023-02-12T10:31:39.588Z,17.20
2023-02-12T10:34:33.100Z,20.10
2023-02-12T10:37:32.740Z,13.23
2023-02-12T10:40:30.030Z,21.10
2023-02-12T10:43:15.443Z,17.83
2023-02-12T10:46:03.103Z,15.40
2023-02-12T10:48:55.773Z,20.10
2023-02-12T10:52:03.717Z,19.15
2023-02-12T10:54:49.463Z,14.70
2023-02-12T10:57:39.348Z,16.40
2023-02-12T11:00:36.682Z,21.60
2023-02-12T11:03:23.831Z,17.77
2023-02-12T11:06:12.302Z,17.33
2023-02-12T11:08:59.426Z,19.23
2023-02-12T11:11:44.832Z,16.65
2023-02-12T11:14:34.184Z,14.55
2023-02-12T11:17:35.381Z,16.55
2023-02-12T11:20:22.940Z,15.80
2023-02-12T11:23:34.039Z,22.60
2023-02-12T11:26:19.512Z,18.58
2023-02-12T11:29:24.420Z,18.58
2023-02-12T11:32:17.089Z,20.70
2023-02-12T11:35:25.281Z,16.85
2023-02-12T11:38:23.743Z,17.75
2023-02-12T11:41:37.878Z,20.02
2023-02-12T11:44:27.202Z,18.05
2023-02-12T11:47:20.080Z,18.65
2023-02-12T11:50:29.893Z,14.80
2023-02-12T11:53:30.420Z,18.80
2023-02-12T11:56:15.905Z,19.83
2023-02-12T11:59:17.176Z,14.60
2023-02-12T12:02:30.167Z,18.65
2023-02-12T12:05:23.297Z,18.52
2023-02-12T12:08:35.257Z,18.60
2023-02-12T12:11:29.045Z,20.83
2023-02-12T12:14:33.092Z,17.83
2023-02-12T12:17:37.946Z,21.63
2023-02-12T12:20:30.700Z,18.83
2023-02-12T12:26:26.780Z,24.13
2023-02-12T12:29:29.289Z,18.55
2023-02-12T12:32:17.945Z,26.40
2023-02-12T12:35:04.158Z,20.50
2023-02-12T12:38:12.475Z,24.70
2023-02-12T12:41:11.745Z,22.38
2023-02-12T12:44:25.400Z,20.27
2023-02-12T12:47:41.643Z,18.60
2023-02-12T12:51:01.369Z,24.73
2023-02-12T12:53:56.062Z,22.00
2023-02-12T12:57:17.010Z,32.72
2023-02-12T13:00:23.649Z,26.27
2023-02-12T13:03:30.480Z,21.10
2023-02-12T13:06:31.067Z,23.30
2023-02-12T13:09:33.592Z,17.52
2023-02-12T13:12:38.661Z,18.08
2023-02-12T13:15:32.848Z,13.37
2023-02-12T13:18:39.100Z,14.18
2023-02-12T13:21:58.882Z,17.90
2023-02-12T13:25:28.866Z,17.45
2023-02-12T13:28:33.769Z,15.13
2023-02-12T13:31:32.973Z,15.88
2023-02-12T13:34:21.769Z,16.60
2023-02-12T13:37:15.094Z,13.10
2023-02-12T13:40:05.044Z,18.45
2023-02-12T13:43:00.504Z,17.58
2023-02-12T13:46:07.882Z,17.52
2023-02-12T13:49:20.417Z,15.48
2023-02-12T13:52:08.871Z,14.48
2023-02-12T13:55:09.489Z,16.98
2023-02-12T13:58:31.628Z,16.95
2023-02-12T14:01:47.049Z,12.48
2023-02-12T14:04:54.142Z,12.95
2023-02-12T14:07:52.314Z,18.02
2023-02-12T14:10:43.552Z,15.88
2023-02-12T14:13:35.032Z,19.77
2023-02-12T14:16:29.893Z,14.57
2023-02-12T14:19:40.699Z,14.75
2023-02-12T14:22:29.031Z,18.85
2023-02-12T14:25:14.506Z,15.55
2023-02-12T14:28:24.412Z,14.80
2023-02-12T14:31:20.252Z,13.35
2023-02-12T14:34:08.448Z,15.73
2023-02-12T14:37:18.213Z,16.27
2023-02-12T14:40:34.927Z,16.45
2023-02-12T14:43:27.834Z,14.40
2023-02-12T14:46:44.593Z,16.20
2023-02-12T14:49:35.330Z,24.50
2023-02-12T14:52:26.562Z,22.45
2023-02-12T14:55:20.593Z,18.90
2023-02-12T14:58:21.493Z,18.55
2023-02-12T15:01:07.649Z,22.95
2023-02-12T15:03:55.161Z,27.55
2023-02-12T15:06:49.047Z,24.58
2023-02-12T15:09:50.506Z,28.17
2023-02-12T15:12:40.897Z,32.65
2023-02-12T15:15:56.428Z,28.55
2023-02-12T15:18:44.354Z,31.60
2023-02-12T15:21:32.264Z,27.98
2023-02-12T15:24:25.546Z,28.42
2023-02-12T15:27:14.141Z,28.90
2023-02-12T15:30:00.352Z,29.90
2023-02-12T15:32:47.164Z,28.75
2023-02-12T15:35:37.861Z,30.27
2023-02-12T15:38:35.941Z,31.15
2023-02-12T15:41:33.245Z,18.15
2023-02-12T15:44:22.827Z,19.00
2023-02-12T15:47:08.290Z,23.35
2023-02-12T15:50:00.698Z,26.70
2023-02-12T15:52:56.719Z,28.05
2023-02-12T15:55:45.081Z,28.80
2023-02-12T15:58:46.430Z,30.10
2023-02-12T16:01:35.131Z,29.33
2023-02-12T16:04:20.988Z,32.63
2023-02-12T16:07:07.995Z,26.17
2023-02-12T16:09:54.055Z,29.60
2023-02-12T16:12:41.663Z,28.75
2023-02-12T16:15:30.827Z,29.65
2023-02-12T16:18:34.993Z,29.58
2023-02-12T16:21:23.406Z,28.20
2023-02-12T16:24:32.285Z,28.95
2023-02-12T16:27:23.019Z,29.52
2023-02-12T16:30:27.691Z,32.00
2023-02-12T16:33:36.973Z,28.70
2023-02-12T16:36:25.308Z,30.55
2023-02-12T16:39:50.642Z,29.17
2023-02-12T16:42:36.314Z,32.70
2023-02-12T16:45:25.969Z,31.45
2023-02-12T16:48:25.355Z,29.45
2023-02-12T16:51:31.704Z,30.13
2023-02-12T16:54:41.953Z,33.72
2023-02-12T16:57:27.590Z,30.50
2023-02-12T17:00:16.983Z,30.23
2023-02-12T17:03:02.501Z,29.38
2023-02-12T17:05:52.083Z,31.05
2023-02-12T17:08:37.485Z,33.55
2023-02-12T17:11:24.265Z,33.25
2023-02-12T17:14:15.424Z,34.75
2023-02-12T17:17:01.253Z,34.03
2023-02-12T17:19:46.373Z,35.22
2023-02-12T17:22:31.949Z,33.90
2023-02-12T17:25:20.787Z,43.70
2023-02-12T17:28:06.084Z,41.13
2023-02-12T17:30:53.272Z,37.40
2023-02-12T17:33:39.607Z,38.60
2023-02-12T17:36:25.248Z,52.33
2023-02-12T17:39:13.009Z,42.13
2023-02-12T17:42:00.251Z,36.92
2023-02-12T17:44:45.872Z,48.58
2023-02-12T17:47:31.360Z,42.72
2023-02-12T17:50:22.858Z,43.58
2023-02-12T17:53:13.388Z,95.18
2023-02-12T17:56:01.820Z,95.82
2023-02-12T17:58:48.884Z,120.90
2023-02-12T18:01:37.569Z,51.38
2023-02-12T18:04:28.673Z,92.45
2023-02-12T18:07:17.282Z,39.70
2023-02-12T18:10:05.213Z,36.60
2023-02-12T18:12:53.584Z,37.33
2023-02-12T18:15:40.570Z,41.97
2023-02-12T18:18:25.928Z,40.15
2023-02-12T18:21:13.714Z,43.58
2023-02-12T18:24:00.981Z,39.88
2023-02-12T18:26:47.019Z,36.95
2023-02-12T18:29:32.648Z,34.65
2023-02-12T18:32:17.837Z,34.90
2023-02-12T18:35:05.567Z,38.88
2023-02-12T18:37:51.033Z,37.55
2023-02-12T18:40:40.432Z,39.67
2023-02-12T18:43:26.037Z,41.00
2023-02-12T18:46:13.979Z,38.90
2023-02-12T18:49:00.627Z,38.55
2023-02-12T18:51:46.006Z,43.40
2023-02-12T18:54:34.152Z,42.40
2023-02-12T18:57:21.886Z,42.92
2023-02-12T19:00:11.298Z,42.00
2023-02-12T19:02:56.904Z,39.97
2023-02-12T19:05:42.289Z,38.35
2023-02-12T19:08:27.611Z,40.58
2023-02-12T19:11:16.371Z,37.97
2023-02-12T19:14:02.289Z,42.13
2023-02-12T19:16:48.299Z,44.45
2023-02-12T19:19:33.761Z,43.38
2023-02-12T19:22:19.454Z,45.08
2023-02-12T19:25:05.224Z,48.00
2023-02-12T19:27:50.752Z,45.47
2023-02-12T19:30:37.969Z,45.80
2023-02-12T19:33:43.122Z,42.60
2023-02-12T19:36:30.715Z,45.17
2023-02-12T19:39:19.057Z,48.13
2023-02-12T19:42:05.185Z,40.45
2023-02-12T19:44:50.537Z,45.17
2023-02-12T19:47:36.611Z,45.00
2023-02-12T19:50:22.271Z,46.03
2023-02-12T19:53:08.144Z,47.15
2023-02-12T19:55:53.773Z,49.65
2023-02-12T19:58:42.612Z,42.72
2023-02-12T20:01:28.660Z,41.90
2023-02-12T20:04:17.326Z,44.15
2023-02-12T20:07:03.506Z,45.83
2023-02-12T20:09:51.629Z,42.72
2023-02-12T20:12:40.106Z,45.75
2023-02-12T20:15:28.694Z,46.58
2023-02-12T20:18:16.998Z,43.35
2023-02-12T20:21:09.196Z,47.63
2023-02-12T20:23:54.933Z,48.42
2023-02-12T20:26:40.926Z,47.42
2023-02-12T20:29:27.069Z,43.20
2023-02-12T20:32:12.585Z,41.53
2023-02-12T20:34:57.843Z,43.97
2023-02-12T20:37:45.886Z,44.20
2023-02-12T20:40:31.805Z,47.03
2023-02-12T20:43:17.132Z,46.65
2023-02-12T20:46:12.003Z,47.03
2023-02-12T20:49:18.673Z,46.63
2023-02-12T20:52:04.335Z,48.50
2023-02-12T20:54:49.672Z,46.67
2023-02-12T20:57:37.625Z,47.67
2023-02-12T21:00:22.956Z,45.92
2023-02-12T21:03:08.344Z,48.08
2023-02-12T21:05:53.894Z,48.10
2023-02-12T21:08:53.105Z,44.83
2023-02-12T21:11:40.909Z,46.40
2023-02-12T21:14:26.669Z,44.20
2023-02-12T21:17:11.873Z,44.35
2023-02-12T21:20:00.358Z,42.25
2023-02-12T21:22:45.909Z,41.17
2023-02-12T21:25:31.526Z,42.80
2023-02-12T21:28:16.768Z,43.00
2023-02-12T21:31:10.904Z,42.17
2023-02-12T21:34:00.589Z,43.20
2023-02-12T21:36:48.572Z,41.55
2023-02-12T21:39:34.523Z,45.22
2023-02-12T21:42:20.212Z,44.13
2023-02-12T21:45:06.525Z,43.45
2023-02-12T21:47:51.760Z,43.83
2023-02-12T21:50:40.328Z,46.65
2023-02-12T21:53:26.261Z,47.58
2023-02-12T21:56:12.057Z,47.40
2023-02-12T21:59:03.047Z,45.17
2023-02-12T22:01:55.270Z,49.60
2023-02-12T22:04:41.080Z,46.67
2023-02-12T22:07:26.375Z,49.60
2023-02-12T22:10:12.102Z,43.83
2023-02-12T22:12:57.434Z,53.95
2023-02-12T22:15:43.079Z,47.70
2023-02-12T22:18:32.671Z,49.85
2023-02-12T22:21:18.694Z,46.60
2023-02-12T22:24:09.876Z,44.63
2023-02-12T22:26:55.792Z,47.17
2023-02-12T22:29:47.293Z,47.10
2023-02-12T22:32:33.214Z,55.10
2023-02-12T22:35:19.965Z,48.85
2023-02-12T22:38:05.725Z,52.30
2023-02-12T22:40:52.995Z,48.53
2023-02-12T22:43:40.311Z,50.35
2023-02-12T22:46:26.425Z,52.67
2023-02-12T22:49:12.096Z,48.72
2023-02-12T22:51:57.694Z,50.30
2023-02-12T22:54:43.662Z,46.40
2023-02-12T22:57:29.263Z,51.78
2023-02-12T23:00:15.618Z,48.67
2023-02-12T23:03:01.177Z,50.60
2023-02-12T23:05:47.154Z,47.13
2023-02-12T23:08:33.321Z,50.05
2023-02-12T23:11:19.632Z,52.72
2023-02-12T23:14:11.004Z,48.67
2023-02-12T23:16:59.321Z,54.33
2023-02-12T23:19:47.929Z,56.13
2023-02-12T23:22:33.514Z,55.38
2023-02-12T23:25:18.960Z,50.72
2023-02-12T23:28:10.763Z,51.60
2023-02-12T23:30:57.174Z,45.67
2023-02-12T23:33:42.712Z,49.17
2023-02-12T23:36:28.341Z,52.55
2023-02-12T23:39:17.728Z,51.22
2023-02-12T23:42:03.374Z,51.15
2023-02-12T23:44:48.736Z,46.38
2023-02-12T23:47:34.022Z,48.47
2023-02-12T23:50:19.872Z,50.25
2023-02-12T23:53:05.454Z,44.70
2023-02-12T23:55:56.915Z,47.72
2023-02-12T23:58:42.242Z,46.95
